sensor_id;sensor_type;location;lat;lon;timestamp;pressure;altitude;pressure_sealevel;temperature;humidity
76122;BME280;64853;53.200;6.080;2023-04-24T00:02:34;99738.44;;;18.90;45.65
76122;BME280;64853;53.200;6.080;2023-04-24T00:07:27;99741.22;;;18.90;46.03
76122;BME280;64853;53.200;6.080;2023-04-24T00:12:20;99728.53;;;18.89;46.00
76122;BME280;64853;53.200;6.080;2023-04-24T00:17:12;99723.66;;;18.86;46.17
76122;BME280;64853;53.200;6.080;2023-04-24T00:22:03;99731.94;;;18.86;45.70
76122;BME280;64853;53.200;6.080;2023-04-24T00:26:55;99723.16;;;18.84;45.94
76122;BME280;64853;53.200;6.080;2023-04-24T00:31:48;99734.22;;;18.84;45.84
76122;BME280;64853;53.200;6.080;2023-04-24T00:36:39;99725.44;;;18.82;46.05
76122;BME280;64853;53.200;6.080;2023-04-24T00:41:31;99728.53;;;18.80;45.84
76122;BME280;64853;53.200;6.080;2023-04-24T00:46:22;99718.91;;;18.78;45.89
76122;BME280;64853;53.200;6.080;2023-04-24T00:51:15;99714.50;;;18.76;45.92
76122;BME280;64853;53.200;6.080;2023-04-24T00:56:06;99708.19;;;18.76;45.99
76122;BME280;64853;53.200;6.080;2023-04-24T01:00:58;99709.63;;;18.73;46.04
76122;BME280;64853;53.200;6.080;2023-04-24T01:05:51;99705.25;;;18.72;46.15
76122;BME280;64853;53.200;6.080;2023-04-24T01:10:43;99704.75;;;18.70;45.89
76122;BME280;64853;53.200;6.080;2023-04-24T01:15:36;99702.81;;;18.71;45.70
76122;BME280;64853;53.200;6.080;2023-04-24T01:20:27;99703.13;;;18.69;46.05
76122;BME280;64853;53.200;6.080;2023-04-24T01:25:21;99697.13;;;18.67;45.90
76122;BME280;64853;53.200;6.080;2023-04-24T01:30:14;99698.25;;;18.66;45.72
76122;BME280;64853;53.200;6.080;2023-04-24T01:35:07;99704.09;;;18.65;45.81
76122;BME280;64853;53.200;6.080;2023-04-24T01:39:58;99695.66;;;18.61;45.65
76122;BME280;64853;53.200;6.080;2023-04-24T01:44:52;99694.50;;;18.62;45.78
76122;BME280;64853;53.200;6.080;2023-04-24T01:49:45;99703.59;;;18.63;45.78
76122;BME280;64853;53.200;6.080;2023-04-24T01:54:36;99701.16;;;18.61;46.05
76122;BME280;64853;53.200;6.080;2023-04-24T01:59:28;99699.53;;;18.60;46.02
76122;BME280;64853;53.200;6.080;2023-04-24T02:04:22;99697.09;;;18.58;45.90
76122;BME280;64853;53.200;6.080;2023-04-24T02:09:13;99705.69;;;18.57;45.92
76122;BME280;64853;53.200;6.080;2023-04-24T02:14:05;99700.16;;;18.57;45.67
76122;BME280;64853;53.200;6.080;2023-04-24T02:18:56;99697.72;;;18.55;45.69
76122;BME280;64853;53.200;6.080;2023-04-24T02:23:49;99700.78;;;18.54;45.61
76122;BME280;64853;53.200;6.080;2023-04-24T02:28:40;99699.16;;;18.53;45.67
76122;BME280;64853;53.200;6.080;2023-04-24T02:33:32;99699.16;;;18.53;45.70
76122;BME280;64853;53.200;6.080;2023-04-24T02:38:23;99701.44;;;18.51;45.79
76122;BME280;64853;53.200;6.080;2023-04-24T02:43:16;99698.19;;;18.49;45.61
76122;BME280;64853;53.200;6.080;2023-04-24T02:48:08;99710.84;;;18.50;45.61
76122;BME280;64853;53.200;6.080;2023-04-24T02:52:59;99711.50;;;18.47;45.82
76122;BME280;64853;53.200;6.080;2023-04-24T02:57:50;99709.53;;;18.47;45.48
76122;BME280;64853;53.200;6.080;2023-04-24T03:02:43;99706.28;;;18.45;45.71
76122;BME280;64853;53.200;6.080;2023-04-24T03:07:34;99699.94;;;18.45;45.45
76122;BME280;64853;53.200;6.080;2023-04-24T03:12:27;99705.78;;;18.43;45.64
76122;BME280;64853;53.200;6.080;2023-04-24T03:17:18;99699.47;;;18.43;45.62
76122;BME280;64853;53.200;6.080;2023-04-24T03:22:11;99703.34;;;18.42;45.56
76122;BME280;64853;53.200;6.080;2023-04-24T03:27:02;99708.06;;;18.41;45.66
76122;BME280;64853;53.200;6.080;2023-04-24T03:31:54;99722.16;;;18.39;45.87
76122;BME280;64853;53.200;6.080;2023-04-24T03:36:45;99724.44;;;18.37;45.92
76122;BME280;64853;53.200;6.080;2023-04-24T03:41:39;99732.69;;;18.37;45.81
76122;BME280;64853;53.200;6.080;2023-04-24T03:46:31;99733.81;;;18.36;45.63
76122;BME280;64853;53.200;6.080;2023-04-24T03:51:22;99738.53;;;18.36;45.72
76122;BME280;64853;53.200;6.080;2023-04-24T03:56:14;99739.97;;;18.33;45.78
76122;BME280;64853;53.200;6.080;2023-04-24T04:01:07;99742.72;;;18.33;45.78
76122;BME280;64853;53.200;6.080;2023-04-24T04:05:58;99750.50;;;18.31;45.64
76122;BME280;64853;53.200;6.080;2023-04-24T04:10:50;99759.59;;;18.32;45.76
76122;BME280;64853;53.200;6.080;2023-04-24T04:15:41;99756.34;;;18.30;45.56
76122;BME280;64853;53.200;6.080;2023-04-24T04:20:34;99757.47;;;18.29;45.55
76122;BME280;64853;53.200;6.080;2023-04-24T04:25:25;99762.16;;;18.28;45.86
76122;BME280;64853;53.200;6.080;2023-04-24T04:30:17;99758.94;;;18.26;45.67
76122;BME280;64853;53.200;6.080;2023-04-24T04:35:08;99766.34;;;18.26;45.68
76122;BME280;64853;53.200;6.080;2023-04-24T04:40:02;99785.97;;;18.24;45.57
76122;BME280;64853;53.200;6.080;2023-04-24T04:44:56;99788.25;;;18.22;45.74
76122;BME280;64853;53.200;6.080;2023-04-24T04:49:48;99797.63;;;18.21;45.71
76122;BME280;64853;53.200;6.080;2023-04-24T04:54:41;99805.72;;;18.17;45.97
76122;BME280;64853;53.200;6.080;2023-04-24T04:59:34;99812.56;;;18.20;45.98
76122;BME280;64853;53.200;6.080;2023-04-24T05:04:25;99819.06;;;18.47;45.70
76122;BME280;64853;53.200;6.080;2023-04-24T05:09:17;99818.63;;;18.62;45.39
76122;BME280;64853;53.200;6.080;2023-04-24T05:14:09;99828.78;;;18.75;45.46
76122;BME280;64853;53.200;6.080;2023-04-24T05:19:01;99834.41;;;18.93;44.98
76122;BME280;64853;53.200;6.080;2023-04-24T05:23:53;99839.00;;;19.06;44.77
76122;BME280;64853;53.200;6.080;2023-04-24T05:28:44;99848.94;;;19.16;44.74
76122;BME280;64853;53.200;6.080;2023-04-24T05:33:36;99852.06;;;19.23;44.61
76122;BME280;64853;53.200;6.080;2023-04-24T05:38:29;99857.44;;;19.28;44.71
76122;BME280;64853;53.200;6.080;2023-04-24T05:43:20;99865.56;;;19.34;44.81
76122;BME280;64853;53.200;6.080;2023-04-24T05:48:12;99872.41;;;19.36;44.67
76122;BME280;64853;53.200;6.080;2023-04-24T05:53:03;99871.94;;;19.34;44.46
76122;BME280;64853;53.200;6.080;2023-04-24T05:57:58;99895.50;;;19.40;44.59
76122;BME280;64853;53.200;6.080;2023-04-24T06:02:50;99907.03;;;19.42;44.17
76122;BME280;64853;53.200;6.080;2023-04-24T06:07:41;99917.28;;;19.42;44.44
76122;BME280;64853;53.200;6.080;2023-04-24T06:12:33;99923.63;;;19.42;44.26
76122;BME280;64853;53.200;6.080;2023-04-24T06:17:26;99932.22;;;19.41;44.77
76122;BME280;64853;53.200;6.080;2023-04-24T06:22:17;99939.06;;;19.43;44.32
76122;BME280;64853;53.200;6.080;2023-04-24T06:27:08;99946.69;;;19.38;44.58
76122;BME280;64853;53.200;6.080;2023-04-24T06:32:00;99956.91;;;19.37;44.96
76122;BME280;64853;53.200;6.080;2023-04-24T06:36:53;99966.50;;;19.40;45.20
76122;BME280;64853;53.200;6.080;2023-04-24T06:41:45;99972.03;;;19.40;46.03
76122;BME280;64853;53.200;6.080;2023-04-24T06:46:36;99966.19;;;19.41;45.19
76122;BME280;64853;53.200;6.080;2023-04-24T06:51:28;99965.63;;;19.30;45.41
76122;BME280;64853;53.200;6.080;2023-04-24T06:56:21;99988.44;;;19.45;45.92
76122;BME280;64853;53.200;6.080;2023-04-24T07:01:12;99992.97;;;19.63;46.09
76122;BME280;64853;53.200;6.080;2023-04-24T07:06:04;99999.66;;;19.71;45.15
76122;BME280;64853;53.200;6.080;2023-04-24T07:10:56;100001.41;;;19.67;45.53
76122;BME280;64853;53.200;6.080;2023-04-24T07:15:49;100015.38;;;19.62;45.16
76122;BME280;64853;53.200;6.080;2023-04-24T07:20:40;100024.31;;;19.59;44.92
76122;BME280;64853;53.200;6.080;2023-04-24T07:25:32;100033.19;;;19.56;44.89
76122;BME280;64853;53.200;6.080;2023-04-24T07:30:24;100043.28;;;19.52;44.73
76122;BME280;64853;53.200;6.080;2023-04-24T07:35:17;100051.03;;;19.50;44.77
76122;BME280;64853;53.200;6.080;2023-04-24T07:40:11;100062.72;;;19.46;44.78
76122;BME280;64853;53.200;6.080;2023-04-24T07:45:03;100067.75;;;19.44;44.98
76122;BME280;64853;53.200;6.080;2023-04-24T07:49:54;100079.75;;;19.40;45.30
76122;BME280;64853;53.200;6.080;2023-04-24T07:54:47;100095.03;;;19.37;45.35
76122;BME280;64853;53.200;6.080;2023-04-24T07:59:39;100104.13;;;19.38;45.07
76122;BME280;64853;53.200;6.080;2023-04-24T08:04:31;100104.44;;;19.36;45.44
76122;BME280;64853;53.200;6.080;2023-04-24T08:09:22;100115.97;;;19.38;45.21
76122;BME280;64853;53.200;6.080;2023-04-24T08:14:15;100116.81;;;19.39;45.10
76122;BME280;64853;53.200;6.080;2023-04-24T08:19:07;100133.81;;;19.32;45.53
76122;BME280;64853;53.200;6.080;2023-04-24T08:23:58;100137.28;;;19.38;46.93
76122;BME280;64853;53.200;6.080;2023-04-24T08:28:50;100149.53;;;19.45;46.50
76122;BME280;64853;53.200;6.080;2023-04-24T08:33:42;100159.31;;;19.52;47.70
76122;BME280;64853;53.200;6.080;2023-04-24T08:38:36;100164.63;;;19.62;45.92
76122;BME280;64853;53.200;6.080;2023-04-24T08:43:27;100153.66;;;19.79;45.94
76122;BME280;64853;53.200;6.080;2023-04-24T08:48:20;100168.50;;;19.83;46.26
76122;BME280;64853;53.200;6.080;2023-04-24T08:53:14;100181.31;;;19.79;44.97
76122;BME280;64853;53.200;6.080;2023-04-24T08:58:06;100191.38;;;19.75;45.03
76122;BME280;64853;53.200;6.080;2023-04-24T09:03:00;100200.78;;;19.74;44.66
76122;BME280;64853;53.200;6.080;2023-04-24T09:07:54;100204.88;;;19.77;45.82
76122;BME280;64853;53.200;6.080;2023-04-24T09:12:47;100203.28;;;19.84;45.98
76122;BME280;64853;53.200;6.080;2023-04-24T09:17:41;100210.84;;;19.93;45.06
76122;BME280;64853;53.200;6.080;2023-04-24T09:22:32;100219.63;;;19.95;45.12
76122;BME280;64853;53.200;6.080;2023-04-24T09:27:24;100234.25;;;19.95;44.43
76122;BME280;64853;53.200;6.080;2023-04-24T09:32:21;100233.94;;;19.97;44.14
76122;BME280;64853;53.200;6.080;2023-04-24T09:37:27;100246.16;;;19.96;43.64
76122;BME280;64853;53.200;6.080;2023-04-24T09:42:19;100253.13;;;19.93;43.35
76122;BME280;64853;53.200;6.080;2023-04-24T09:47:10;100252.41;;;19.88;43.92
76122;BME280;64853;53.200;6.080;2023-04-24T09:52:04;100269.31;;;19.86;43.39
76122;BME280;64853;53.200;6.080;2023-04-24T09:56:55;100272.41;;;19.84;43.97
76122;BME280;64853;53.200;6.080;2023-04-24T10:01:47;100281.00;;;19.83;43.45
76122;BME280;64853;53.200;6.080;2023-04-24T10:06:42;100286.34;;;19.79;43.38
76122;BME280;64853;53.200;6.080;2023-04-24T10:11:35;100298.56;;;19.78;44.99
76122;BME280;64853;53.200;6.080;2023-04-24T10:16:26;100300.88;;;19.85;44.23
76122;BME280;64853;53.200;6.080;2023-04-24T10:21:19;100315.69;;;19.89;44.11
76122;BME280;64853;53.200;6.080;2023-04-24T10:26:13;100339.16;;;19.92;43.91
76122;BME280;64853;53.200;6.080;2023-04-24T10:31:09;100333.63;;;19.92;43.84
76122;BME280;64853;53.200;6.080;2023-04-24T10:36:01;100340.88;;;19.88;43.31
76122;BME280;64853;53.200;6.080;2023-04-24T10:40:57;100342.66;;;19.83;44.05
76122;BME280;64853;53.200;6.080;2023-04-24T10:46:02;100345.84;;;19.77;42.14
76122;BME280;64853;53.200;6.080;2023-04-24T10:50:55;100350.91;;;19.61;41.93
76122;BME280;64853;53.200;6.080;2023-04-24T10:55:48;100349.97;;;19.52;41.58
76122;BME280;64853;53.200;6.080;2023-04-24T11:00:41;100365.53;;;19.34;40.37
76122;BME280;64853;53.200;6.080;2023-04-24T11:05:50;100364.53;;;19.16;41.21
76122;BME280;64853;53.200;6.080;2023-04-24T11:10:46;100372.59;;;19.26;41.05
76122;BME280;64853;53.200;6.080;2023-04-24T11:15:41;100383.44;;;19.36;41.49
76122;BME280;64853;53.200;6.080;2023-04-24T11:20:32;100397.69;;;19.43;41.45
76122;BME280;64853;53.200;6.080;2023-04-24T11:25:24;100414.94;;;19.49;41.93
76122;BME280;64853;53.200;6.080;2023-04-24T11:30:19;100397.44;;;19.54;41.45
76122;BME280;64853;53.200;6.080;2023-04-24T11:35:14;100408.81;;;19.52;41.62
76122;BME280;64853;53.200;6.080;2023-04-24T11:40:08;100403.78;;;19.54;41.39
76122;BME280;64853;53.200;6.080;2023-04-24T11:45:00;100417.94;;;19.67;41.08
76122;BME280;64853;53.200;6.080;2023-04-24T11:49:53;100423.78;;;19.65;41.51
76122;BME280;64853;53.200;6.080;2023-04-24T11:54:48;100418.84;;;19.62;41.64
76122;BME280;64853;53.200;6.080;2023-04-24T11:59:41;100425.41;;;19.66;41.64
76122;BME280;64853;53.200;6.080;2023-04-24T12:04:39;100419.06;;;19.65;41.55
76122;BME280;64853;53.200;6.080;2023-04-24T12:09:42;100436.06;;;19.59;41.71
76122;BME280;64853;53.200;6.080;2023-04-24T12:14:42;100437.78;;;19.55;41.46
76122;BME280;64853;53.200;6.080;2023-04-24T12:19:34;100437.25;;;19.53;41.54
76122;BME280;64853;53.200;6.080;2023-04-24T12:24:25;100432.16;;;19.46;41.86
76122;BME280;64853;53.200;6.080;2023-04-24T12:29:21;100434.50;;;19.39;41.78
76122;BME280;64853;53.200;6.080;2023-04-24T12:34:17;100445.34;;;19.35;41.76
76122;BME280;64853;53.200;6.080;2023-04-24T12:39:14;100451.41;;;19.37;41.69
76122;BME280;64853;53.200;6.080;2023-04-24T12:44:10;100466.81;;;19.38;41.66
76122;BME280;64853;53.200;6.080;2023-04-24T12:49:03;100471.84;;;19.36;42.13
76122;BME280;64853;53.200;6.080;2023-04-24T12:53:55;100475.22;;;19.33;41.86
76122;BME280;64853;53.200;6.080;2023-04-24T12:58:46;100474.00;;;19.39;42.23
76122;BME280;64853;53.200;6.080;2023-04-24T13:03:38;100478.81;;;19.47;41.78
76122;BME280;64853;53.200;6.080;2023-04-24T13:08:30;100488.84;;;19.43;42.08
76122;BME280;64853;53.200;6.080;2023-04-24T13:13:22;100491.69;;;19.38;41.68
76122;BME280;64853;53.200;6.080;2023-04-24T13:18:13;100496.81;;;19.31;41.77
76122;BME280;64853;53.200;6.080;2023-04-24T13:23:05;100493.13;;;19.22;41.65
76122;BME280;64853;53.200;6.080;2023-04-24T13:27:58;100495.38;;;19.20;43.42
76122;BME280;64853;53.200;6.080;2023-04-24T13:32:49;100505.16;;;19.26;43.00
76122;BME280;64853;53.200;6.080;2023-04-24T13:37:40;100517.88;;;19.27;42.56
76122;BME280;64853;53.200;6.080;2023-04-24T13:42:32;100507.13;;;19.25;43.97
76122;BME280;64853;53.200;6.080;2023-04-24T13:47:25;100510.28;;;19.19;43.28
76122;BME280;64853;53.200;6.080;2023-04-24T13:52:17;100515.81;;;19.19;43.86
76122;BME280;64853;53.200;6.080;2023-04-24T13:57:08;100520.03;;;19.30;43.98
76122;BME280;64853;53.200;6.080;2023-04-24T14:01:59;100519.94;;;19.35;42.98
76122;BME280;64853;53.200;6.080;2023-04-24T14:06:52;100519.53;;;19.28;42.97
76122;BME280;64853;53.200;6.080;2023-04-24T14:11:44;100522.69;;;19.21;42.68
76122;BME280;64853;53.200;6.080;2023-04-24T14:16:35;100520.00;;;19.16;42.87
76122;BME280;64853;53.200;6.080;2023-04-24T14:21:27;100523.16;;;19.09;42.81
76122;BME280;64853;53.200;6.080;2023-04-24T14:26:19;100526.97;;;19.14;42.57
76122;BME280;64853;53.200;6.080;2023-04-24T14:31:11;100531.56;;;19.18;42.85
76122;BME280;64853;53.200;6.080;2023-04-24T14:36:03;100532.78;;;19.12;42.91
76122;BME280;64853;53.200;6.080;2023-04-24T14:40:55;100525.09;;;19.09;42.96
76122;BME280;64853;53.200;6.080;2023-04-24T14:45:48;100523.34;;;19.13;42.36
76122;BME280;64853;53.200;6.080;2023-04-24T14:50:40;100528.06;;;19.13;42.56
76122;BME280;64853;53.200;6.080;2023-04-24T14:55:31;100530.63;;;19.09;42.66
76122;BME280;64853;53.200;6.080;2023-04-24T15:00:24;100532.47;;;19.14;43.68
76122;BME280;64853;53.200;6.080;2023-04-24T15:05:17;100535.31;;;19.08;43.50
76122;BME280;64853;53.200;6.080;2023-04-24T15:10:09;100534.19;;;19.09;43.21
76122;BME280;64853;53.200;6.080;2023-04-24T15:15:00;100548.44;;;19.17;43.25
76122;BME280;64853;53.200;6.080;2023-04-24T15:19:52;100530.94;;;19.07;43.01
76122;BME280;64853;53.200;6.080;2023-04-24T15:24:45;100538.00;;;19.14;42.90
76122;BME280;64853;53.200;6.080;2023-04-24T15:29:37;100534.09;;;19.15;42.84
76122;BME280;64853;53.200;6.080;2023-04-24T15:34:28;100535.41;;;19.03;43.11
76122;BME280;64853;53.200;6.080;2023-04-24T15:39:22;100544.44;;;19.09;43.86
76122;BME280;64853;53.200;6.080;2023-04-24T15:44:15;100541.56;;;19.14;43.42
76122;BME280;64853;53.200;6.080;2023-04-24T15:49:06;100552.41;;;19.10;43.26
76122;BME280;64853;53.200;6.080;2023-04-24T15:53:57;100555.69;;;19.13;43.49
76122;BME280;64853;53.200;6.080;2023-04-24T15:58:49;100564.56;;;19.09;43.20
76122;BME280;64853;53.200;6.080;2023-04-24T16:03:42;100579.59;;;19.03;43.19
76122;BME280;64853;53.200;6.080;2023-04-24T16:08:33;100573.16;;;19.08;43.41
76122;BME280;64853;53.200;6.080;2023-04-24T16:13:25;100579.28;;;19.05;43.22
76122;BME280;64853;53.200;6.080;2023-04-24T16:18:18;100583.84;;;18.96;43.55
76122;BME280;64853;53.200;6.080;2023-04-24T16:23:11;100588.47;;;19.00;43.55
76122;BME280;64853;53.200;6.080;2023-04-24T16:28:04;100589.63;;;19.13;43.58
76122;BME280;64853;53.200;6.080;2023-04-24T16:32:55;100604.78;;;19.16;43.98
76122;BME280;64853;53.200;6.080;2023-04-24T16:37:46;100606.50;;;19.11;44.26
76122;BME280;64853;53.200;6.080;2023-04-24T16:42:39;100607.66;;;19.10;44.16
76122;BME280;64853;53.200;6.080;2023-04-24T16:47:31;100619.81;;;19.09;43.54
76122;BME280;64853;53.200;6.080;2023-04-24T16:52:22;100629.28;;;19.03;43.87
76122;BME280;64853;53.200;6.080;2023-04-24T16:57:14;100637.66;;;18.98;44.02
76122;BME280;64853;53.200;6.080;2023-04-24T17:02:08;100643.97;;;18.99;45.30
76122;BME280;64853;53.200;6.080;2023-04-24T17:07:00;100653.03;;;19.04;44.60
76122;BME280;64853;53.200;6.080;2023-04-24T17:11:51;100661.59;;;19.03;44.23
76122;BME280;64853;53.200;6.080;2023-04-24T17:16:42;100659.75;;;18.98;44.05
76122;BME280;64853;53.200;6.080;2023-04-24T17:21:36;100659.75;;;18.98;43.99
76122;BME280;64853;53.200;6.080;2023-04-24T17:26:28;100658.09;;;18.97;45.18
76122;BME280;64853;53.200;6.080;2023-04-24T17:31:21;100663.47;;;19.07;46.21
76122;BME280;64853;53.200;6.080;2023-04-24T17:36:12;100668.41;;;19.10;45.94
76122;BME280;64853;53.200;6.080;2023-04-24T17:41:05;100670.63;;;19.08;45.27
76122;BME280;64853;53.200;6.080;2023-04-24T17:45:57;100667.94;;;19.03;44.59
76122;BME280;64853;53.200;6.080;2023-04-24T17:50:49;100671.09;;;18.97;44.77
76122;BME280;64853;53.200;6.080;2023-04-24T17:55:41;100672.66;;;19.03;46.16
76122;BME280;64853;53.200;6.080;2023-04-24T18:00:34;100674.53;;;19.07;45.36
76122;BME280;64853;53.200;6.080;2023-04-24T18:05:26;100674.81;;;19.06;44.98
76122;BME280;64853;53.200;6.080;2023-04-24T18:10:18;100682.13;;;18.97;44.87
76122;BME280;64853;53.200;6.080;2023-04-24T18:15:10;100686.75;;;19.01;45.70
76122;BME280;64853;53.200;6.080;2023-04-24T18:20:04;100687.19;;;19.08;44.95
76122;BME280;64853;53.200;6.080;2023-04-24T18:24:55;100683.91;;;19.06;44.79
76122;BME280;64853;53.200;6.080;2023-04-24T18:29:47;100691.22;;;18.97;44.53
76122;BME280;64853;53.200;6.080;2023-04-24T18:34:38;100696.75;;;18.97;44.58
76122;BME280;64853;53.200;6.080;2023-04-24T18:39:31;100706.81;;;19.07;44.73
76122;BME280;64853;53.200;6.080;2023-04-24T18:44:22;100716.63;;;18.99;44.58
76122;BME280;64853;53.200;6.080;2023-04-24T18:49:15;100713.25;;;19.02;44.41
76122;BME280;64853;53.200;6.080;2023-04-24T18:54:06;100723.63;;;19.10;44.30
76122;BME280;64853;53.200;6.080;2023-04-24T18:58:59;100730.78;;;19.11;44.02
76122;BME280;64853;53.200;6.080;2023-04-24T19:03:50;100746.03;;;19.09;46.07
76122;BME280;64853;53.200;6.080;2023-04-24T19:08:42;100743.34;;;19.23;47.04
76122;BME280;64853;53.200;6.080;2023-04-24T19:13:34;100757.09;;;19.28;45.74
76122;BME280;64853;53.200;6.080;2023-04-24T19:18:26;100770.34;;;19.26;45.34
76122;BME280;64853;53.200;6.080;2023-04-24T19:23:18;100771.78;;;19.23;44.78
76122;BME280;64853;53.200;6.080;2023-04-24T19:28:10;100784.25;;;19.21;44.73
76122;BME280;64853;53.200;6.080;2023-04-24T19:33:01;100785.44;;;19.15;44.55
76122;BME280;64853;53.200;6.080;2023-04-24T19:37:54;100794.28;;;19.11;44.50
76122;BME280;64853;53.200;6.080;2023-04-24T19:42:45;100803.19;;;19.08;44.50
76122;BME280;64853;53.200;6.080;2023-04-24T19:47:37;100799.09;;;19.06;44.28
76122;BME280;64853;53.200;6.080;2023-04-24T19:52:29;100803.78;;;19.05;44.22
76122;BME280;64853;53.200;6.080;2023-04-24T19:57:21;100814.59;;;19.02;43.95
76122;BME280;64853;53.200;6.080;2023-04-24T20:02:13;100808.84;;;18.98;44.17
76122;BME280;64853;53.200;6.080;2023-04-24T20:07:04;100809.44;;;18.95;44.02
76122;BME280;64853;53.200;6.080;2023-04-24T20:11:56;100821.06;;;18.92;43.82
76122;BME280;64853;53.200;6.080;2023-04-24T20:16:49;100823.31;;;18.90;44.06
76122;BME280;64853;53.200;6.080;2023-04-24T20:21:40;100823.06;;;18.86;44.08
76122;BME280;64853;53.200;6.080;2023-04-24T20:26:31;100839.63;;;18.86;44.20
76122;BME280;64853;53.200;6.080;2023-04-24T20:31:23;100833.03;;;18.82;44.53
76122;BME280;64853;53.200;6.080;2023-04-24T20:36:16;100841.31;;;18.82;43.99
76122;BME280;64853;53.200;6.080;2023-04-24T20:41:08;100852.66;;;18.81;43.82
76122;BME280;64853;53.200;6.080;2023-04-24T20:45:59;100855.97;;;18.78;43.67
76122;BME280;64853;53.200;6.080;2023-04-24T20:50:51;100857.38;;;18.75;44.10
76122;BME280;64853;53.200;6.080;2023-04-24T20:55:44;100854.91;;;18.73;43.58
76122;BME280;64853;53.200;6.080;2023-04-24T21:00:36;100872.59;;;18.72;43.76
76122;BME280;64853;53.200;6.080;2023-04-24T21:05:28;100873.19;;;18.69;43.45
76122;BME280;64853;53.200;6.080;2023-04-24T21:10:19;100866.59;;;18.65;43.44
76122;BME280;64853;53.200;6.080;2023-04-24T21:15:12;100876.00;;;18.64;43.50
76122;BME280;64853;53.200;6.080;2023-04-24T21:20:04;100881.81;;;18.63;43.50
76122;BME280;64853;53.200;6.080;2023-04-24T21:24:56;100892.56;;;18.59;43.49
76122;BME280;64853;53.200;6.080;2023-04-24T21:29:47;100892.06;;;18.57;43.19
76122;BME280;64853;53.200;6.080;2023-04-24T21:34:40;100898.69;;;18.56;42.80
76122;BME280;64853;53.200;6.080;2023-04-24T21:39:31;100893.72;;;18.53;42.76
76122;BME280;64853;53.200;6.080;2023-04-24T21:44:23;100901.50;;;18.51;42.61
76122;BME280;64853;53.200;6.080;2023-04-24T21:49:14;100908.72;;;18.47;42.53
76122;BME280;64853;53.200;6.080;2023-04-24T21:54:07;100907.06;;;18.46;42.70
76122;BME280;64853;53.200;6.080;2023-04-24T21:58:59;100917.56;;;18.44;42.66
76122;BME280;64853;53.200;6.080;2023-04-24T22:03:50;100920.06;;;18.40;42.71
76122;BME280;64853;53.200;6.080;2023-04-24T22:08:42;100927.00;;;18.37;42.38
76122;BME280;64853;53.200;6.080;2023-04-24T22:13:38;100941.88;;;18.36;42.60
76122;BME280;64853;53.200;6.080;2023-04-24T22:18:29;100936.94;;;18.33;42.74
76122;BME280;64853;53.200;6.080;2023-04-24T22:23:21;100935.03;;;18.29;42.25
76122;BME280;64853;53.200;6.080;2023-04-24T22:28:12;100938.66;;;18.29;42.49
76122;BME280;64853;53.200;6.080;2023-04-24T22:33:05;100955.47;;;18.28;42.48
76122;BME280;64853;53.200;6.080;2023-04-24T22:37:57;100944.72;;;18.26;42.50
76122;BME280;64853;53.200;6.080;2023-04-24T22:42:48;100951.63;;;18.24;42.42
76122;BME280;64853;53.200;6.080;2023-04-24T22:47:40;100956.34;;;18.23;42.16
76122;BME280;64853;53.200;6.080;2023-04-24T22:52:33;100949.72;;;18.19;42.47
76122;BME280;64853;53.200;6.080;2023-04-24T22:57:25;100958.00;;;18.19;42.18
76122;BME280;64853;53.200;6.080;2023-04-24T23:02:18;100950.59;;;18.14;42.23
76122;BME280;64853;53.200;6.080;2023-04-24T23:07:10;100954.75;;;18.12;42.07
76122;BME280;64853;53.200;6.080;2023-04-24T23:12:03;100953.09;;;18.11;42.08
76122;BME280;64853;53.200;6.080;2023-04-24T23:16:55;100958.38;;;18.07;42.25
76122;BME280;64853;53.200;6.080;2023-04-24T23:21:46;100953.94;;;18.06;42.29
76122;BME280;64853;53.200;6.080;2023-04-24T23:26:37;100958.66;;;18.06;42.26
76122;BME280;64853;53.200;6.080;2023-04-24T23:31:30;100970.78;;;18.05;41.97
76122;BME280;64853;53.200;6.080;2023-04-24T23:36:22;100969.41;;;18.02;42.04
76122;BME280;64853;53.200;6.080;2023-04-24T23:41:13;100974.38;;;18.00;41.88
76122;BME280;64853;53.200;6.080;2023-04-24T23:46:04;100983.75;;;17.99;42.12
76122;BME280;64853;53.200;6.080;2023-04-24T23:50:58;100981.53;;;17.96;41.83
76122;BME280;64853;53.200;6.080;2023-04-24T23:55:49;100983.75;;;17.94;41.77
